You are listening to:
KPOU Ground/Tower - Poughkeepsie, New York, United States

KPOU 282053Z AUTO 00000KT 10SM BKN032 OVC044 12/09 A2995 RMK AO2 SLP137 T01220094 56002

If stream doesn't start automatically press the play button
If stream stops then reload player then press play